Time;durP1;ratioP1;P1;durP2;ratioP2;P2;SDS_P1;SDS_P2;PMS_P1;PMS_P2;Temp;Humidity;BMP_temperature;BMP_pressure;BME280_temperature;BME280_humidity;BME280_pressure;Samples;Min_cycle;Max_cycle;Signal;HPM_P1;HPM_P2
2022/03/25 00:01:41;;;;;;;31.35;16.33;;;;;;;;;;5058434;28;20017;-75
2022/03/25 00:04:07;;;;;;;19.67;10.27;;;;;;;;;;5060992;28;20024;-76
2022/03/25 00:06:33;;;;;;;18.80;12.07;;;;;;;;;;5066945;28;20020;-75
2022/03/25 00:09:00;;;;;;;21.77;12.48;;;;;;;;;;5077337;28;20031;-76
2022/03/25 00:11:26;;;;;;;20.77;12.50;;;;;;;;;;5070043;28;20426;-75
2022/03/25 00:13:52;;;;;;;36.55;16.17;;;;;;;;;;5066313;28;20093;-75
2022/03/25 00:16:18;;;;;;;25.98;13.38;;;;;;;;;;5062534;28;20021;-75
2022/03/25 00:18:44;;;;;;;27.58;13.32;;;;;;;;;;5056403;28;20017;-75
2022/03/25 00:21:11;;;;;;;23.80;11.57;;;;;;;;;;5057245;28;20025;-75
2022/03/25 00:23:37;;;;;;;18.42;11.23;;;;;;;;;;5064062;28;20540;-76
2022/03/25 00:26:03;;;;;;;19.65;11.80;;;;;;;;;;5061650;28;20032;-75
2022/03/25 00:28:30;;;;;;;19.35;11.40;;;;;;;;;;5060981;28;20029;-75
2022/03/25 00:30:56;;;;;;;20.20;10.38;;;;;;;;;;5067804;28;20116;-76
2022/03/25 00:33:23;;;;;;;17.55;9.95;;;;;;;;;;5074902;28;20076;-75
2022/03/25 00:35:49;;;;;;;20.25;10.90;;;;;;;;;;5059961;28;20025;-75
2022/03/25 00:38:15;;;;;;;19.48;11.30;;;;;;;;;;5058205;28;20040;-75
2022/03/25 00:40:42;;;;;;;18.70;10.65;;;;;;;;;;5060605;28;20021;-75
2022/03/25 00:43:09;;;;;;;18.17;10.40;;;;;;;;;;5060437;28;20471;-75
2022/03/25 00:45:36;;;;;;;16.45;10.25;;;;;;;;;;5065778;28;20022;-75
2022/03/25 00:48:02;;;;;;;20.55;10.80;;;;;;;;;;5074645;28;20062;-75
2022/03/25 00:50:28;;;;;;;21.70;10.50;;;;;;;;;;5067072;28;20078;-75
2022/03/25 00:52:55;;;;;;;19.75;11.07;;;;;;;;;;5074239;28;20836;-75
2022/03/25 00:55:21;;;;;;;18.15;10.80;;;;;;;;;;5063778;28;20021;-75
2022/03/25 00:57:47;;;;;;;20.75;11.38;;;;;;;;;;5058416;28;20028;-75
2022/03/25 01:00:13;;;;;;;16.05;10.25;;;;;;;;;;5065727;28;20026;-75
2022/03/25 01:02:40;;;;;;;19.92;11.27;;;;;;;;;;5069880;28;20106;-75
2022/03/25 01:05:06;;;;;;;19.33;10.00;;;;;;;;;;5073572;28;20017;-75
2022/03/25 01:07:34;;;;;;;17.20;8.85;;;;;;;;;;5070359;28;20119;-76
2022/03/25 01:10:00;;;;;;;12.57;7.88;;;;;;;;;;5070396;28;20021;-75
2022/03/25 01:12:26;;;;;;;16.88;8.82;;;;;;;;;;5069640;28;20037;-75
2022/03/25 01:14:52;;;;;;;17.67;9.10;;;;;;;;;;5072620;28;20028;-75
2022/03/25 01:17:19;;;;;;;15.65;9.10;;;;;;;;;;5067593;28;20162;-75
2022/03/25 01:19:46;;;;;;;15.90;9.07;;;;;;;;;;5073374;28;20025;-76
2022/03/25 01:22:14;;;;;;;18.90;8.85;;;;;;;;;;5079873;28;20025;-75
2022/03/25 01:24:40;;;;;;;19.05;8.60;;;;;;;;;;5076000;28;20381;-75
2022/03/25 01:27:06;;;;;;;26.08;8.70;;;;;;;;;;5070054;28;20032;-75
2022/03/25 01:29:33;;;;;;;15.50;8.98;;;;;;;;;;5072993;28;20067;-75
2022/03/25 01:31:59;;;;;;;17.30;8.85;;;;;;;;;;5060765;28;20573;-76
2022/03/25 01:34:25;;;;;;;15.30;9.05;;;;;;;;;;5065356;28;20028;-75
2022/03/25 01:36:51;;;;;;;36.17;14.75;;;;;;;;;;5060595;28;20031;-74
2022/03/25 01:39:17;;;;;;;34.83;15.32;;;;;;;;;;5075682;28;20070;-75
2022/03/25 01:41:47;;;;;;;12.63;7.75;;;;;;;;;;5072967;28;20025;-75
2022/03/25 01:44:14;;;;;;;15.18;7.82;;;;;;;;;;5066632;28;20028;-75
2022/03/25 01:46:40;;;;;;;16.92;8.15;;;;;;;;;;5062239;28;20151;-76
2022/03/25 01:49:06;;;;;;;16.70;8.18;;;;;;;;;;5059830;28;20063;-75
2022/03/25 01:51:36;;;;;;;15.93;8.20;;;;;;;;;;5069808;28;20025;-74
2022/03/25 01:54:04;;;;;;;12.73;7.50;;;;;;;;;;5059412;28;20047;-75
2022/03/25 01:56:30;;;;;;;14.05;7.88;;;;;;;;;;5059164;28;20016;-76
2022/03/25 01:58:56;;;;;;;18.52;9.32;;;;;;;;;;5059265;28;20100;-75
2022/03/25 02:01:25;;;;;;;14.70;8.63;;;;;;;;;;5066579;28;20028;-74
2022/03/25 02:03:51;;;;;;;24.17;11.63;;;;;;;;;;5066490;28;20043;-75
2022/03/25 02:06:17;;;;;;;35.45;11.32;;;;;;;;;;5070244;28;20033;-75
2022/03/25 02:08:43;;;;;;;22.05;11.45;;;;;;;;;;5074729;28;20020;-75
2022/03/25 02:11:09;;;;;;;22.55;11.63;;;;;;;;;;5068128;28;20036;-75
2022/03/25 02:13:36;;;;;;;20.80;10.77;;;;;;;;;;5074773;28;20473;-75
2022/03/25 02:16:02;;;;;;;19.67;9.32;;;;;;;;;;5058041;28;20069;-75
2022/03/25 02:18:28;;;;;;;15.18;8.95;;;;;;;;;;5064207;28;20028;-75
2022/03/25 02:20:55;;;;;;;19.58;9.27;;;;;;;;;;5062438;28;20020;-75
2022/03/25 02:23:22;;;;;;;17.83;9.07;;;;;;;;;;5063983;28;20017;-75
2022/03/25 02:25:51;;;;;;;17.65;7.65;;;;;;;;;;5072873;28;20108;-75
2022/03/25 02:28:17;;;;;;;18.73;9.65;;;;;;;;;;5069178;28;20024;-75
2022/03/25 02:30:43;;;;;;;20.52;8.82;;;;;;;;;;5073223;28;20123;-75
2022/03/25 02:33:11;;;;;;;23.90;9.30;;;;;;;;;;5069590;28;20103;-76
2022/03/25 02:35:37;;;;;;;23.20;8.98;;;;;;;;;;5066801;28;20032;-75
2022/03/25 02:38:04;;;;;;;20.88;11.23;;;;;;;;;;5060167;28;20032;-75
2022/03/25 02:40:30;;;;;;;24.15;11.15;;;;;;;;;;5080051;28;20031;-75
2022/03/25 02:42:56;;;;;;;24.02;11.43;;;;;;;;;;5060692;28;20071;-75
2022/03/25 02:45:22;;;;;;;15.77;8.85;;;;;;;;;;5058700;28;20087;-75
2022/03/25 02:47:48;;;;;;;20.83;11.30;;;;;;;;;;5070483;28;20025;-76
2022/03/25 02:50:14;;;;;;;22.17;9.85;;;;;;;;;;5059574;28;20466;-75
2022/03/25 02:52:41;;;;;;;18.67;8.60;;;;;;;;;;5067513;28;20036;-75
2022/03/25 02:55:08;;;;;;;17.17;8.63;;;;;;;;;;5071374;28;20017;-75
2022/03/25 02:57:34;;;;;;;20.77;9.50;;;;;;;;;;5063974;28;20112;-75
2022/03/25 03:00:01;;;;;;;15.98;8.63;;;;;;;;;;5068164;28;20391;-75
2022/03/25 03:02:27;;;;;;;15.32;8.45;;;;;;;;;;5069607;28;20032;-75
2022/03/25 03:04:55;;;;;;;14.32;8.20;;;;;;;;;;5061964;28;20028;-75
2022/03/25 03:07:21;;;;;;;13.13;8.32;;;;;;;;;;5067039;28;20442;-75
2022/03/25 03:09:47;;;;;;;18.00;8.65;;;;;;;;;;5062949;28;20470;-74
2022/03/25 03:12:13;;;;;;;15.48;8.30;;;;;;;;;;5070662;28;20481;-75
2022/03/25 03:14:40;;;;;;;18.15;8.50;;;;;;;;;;5059574;28;20024;-75
2022/03/25 03:17:08;;;;;;;16.08;8.88;;;;;;;;;;5065852;28;20047;-75
2022/03/25 03:19:34;;;;;;;13.63;7.43;;;;;;;;;;5060843;28;20093;-75
2022/03/25 03:22:00;;;;;;;17.58;7.63;;;;;;;;;;5065924;28;20025;-75
2022/03/25 03:24:26;;;;;;;19.02;7.93;;;;;;;;;;5064542;28;20024;-75
2022/03/25 03:26:52;;;;;;;17.15;7.97;;;;;;;;;;5066598;28;20028;-76
2022/03/25 03:29:20;;;;;;;17.02;8.23;;;;;;;;;;5066828;28;20049;-75
2022/03/25 03:31:46;;;;;;;16.67;8.32;;;;;;;;;;5058371;28;20040;-75
2022/03/25 03:34:12;;;;;;;16.55;8.15;;;;;;;;;;5055841;28;20490;-75
2022/03/25 03:36:47;;;;;;;14.82;8.13;;;;;;;;;;5078515;28;20033;-76
2022/03/25 03:39:13;;;;;;;13.80;7.22;;;;;;;;;;5069626;28;20456;-76
2022/03/25 03:41:39;;;;;;;12.93;7.20;;;;;;;;;;5055256;28;20364;-75
2022/03/25 03:44:06;;;;;;;14.70;7.47;;;;;;;;;;5075830;28;20028;-76
2022/03/25 03:46:33;;;;;;;11.95;6.93;;;;;;;;;;5070595;28;20033;-75
2022/03/25 03:48:59;;;;;;;12.80;7.25;;;;;;;;;;5067618;28;20036;-76
2022/03/25 03:51:25;;;;;;;10.32;7.15;;;;;;;;;;5071095;28;20025;-75
2022/03/25 03:53:51;;;;;;;15.32;7.60;;;;;;;;;;5065511;28;20044;-75
2022/03/25 03:56:17;;;;;;;12.18;7.25;;;;;;;;;;5067428;28;20025;-76
2022/03/25 03:58:43;;;;;;;13.20;7.35;;;;;;;;;;5067511;28;20048;-74
2022/03/25 04:01:10;;;;;;;10.48;7.30;;;;;;;;;;5072078;28;20032;-75
2022/03/25 04:03:36;;;;;;;13.18;7.20;;;;;;;;;;5076019;28;20028;-75
2022/03/25 04:06:02;;;;;;;12.48;6.97;;;;;;;;;;5076623;28;20064;-75
2022/03/25 04:08:28;;;;;;;13.80;7.22;;;;;;;;;;5068054;28;20021;-76
2022/03/25 04:10:54;;;;;;;18.02;6.75;;;;;;;;;;5078575;28;20502;-75
2022/03/25 04:13:20;;;;;;;12.10;6.75;;;;;;;;;;5065423;28;20037;-75
2022/03/25 04:15:46;;;;;;;12.60;7.25;;;;;;;;;;5063369;28;20112;-74
2022/03/25 04:18:12;;;;;;;13.73;7.07;;;;;;;;;;5061112;28;20029;-75
2022/03/25 04:20:39;;;;;;;12.25;7.10;;;;;;;;;;5067785;28;20025;-75
2022/03/25 04:23:06;;;;;;;14.07;7.07;;;;;;;;;;5063500;28;20025;-75
2022/03/25 04:25:34;;;;;;;11.90;7.22;;;;;;;;;;5065481;28;20462;-75
2022/03/25 04:28:01;;;;;;;15.90;7.03;;;;;;;;;;5075309;28;20035;-74
2022/03/25 04:30:28;;;;;;;15.10;6.88;;;;;;;;;;5073392;28;20057;-75
2022/03/25 04:32:55;;;;;;;13.73;7.40;;;;;;;;;;5061660;28;20047;-75
2022/03/25 04:35:23;;;;;;;14.35;7.53;;;;;;;;;;5075696;28;20066;-75
2022/03/25 04:37:50;;;;;;;19.15;8.45;;;;;;;;;;5070724;28;20021;-74
2022/03/25 04:40:17;;;;;;;15.32;7.63;;;;;;;;;;5067900;28;20154;-75
2022/03/25 04:42:50;;;;;;;15.00;8.30;;;;;;;;;;5060913;28;20386;-75
2022/03/25 04:45:31;;;;;;;20.55;9.90;;;;;;;;;;5058873;28;20033;-77
2022/03/25 04:47:58;;;;;;;25.60;14.88;;;;;;;;;;5062460;28;20100;-75
2022/03/25 04:50:25;;;;;;;19.15;11.13;;;;;;;;;;5070664;28;20511;-76
2022/03/25 04:52:51;;;;;;;30.70;11.48;;;;;;;;;;5073056;28;20033;-76
2022/03/25 04:55:18;;;;;;;22.67;10.95;;;;;;;;;;5075190;28;20030;-75
2022/03/25 04:57:45;;;;;;;19.77;10.68;;;;;;;;;;5071710;28;20024;-75
2022/03/25 05:00:13;;;;;;;28.15;15.07;;;;;;;;;;5077330;28;20075;-75
2022/03/25 05:02:39;;;;;;;30.92;14.02;;;;;;;;;;5067505;28;20475;-71
2022/03/25 05:05:05;;;;;;;27.42;13.77;;;;;;;;;;5069005;28;20473;-71
2022/03/25 05:07:31;;;;;;;59.08;26.63;;;;;;;;;;5068289;28;20085;-71
2022/03/25 05:09:58;;;;;;;54.78;24.60;;;;;;;;;;5070216;28;20386;-71
2022/03/25 05:12:33;;;;;;;39.05;19.83;;;;;;;;;;5074150;28;20032;-71
2022/03/25 05:15:05;;;;;;;37.28;18.25;;;;;;;;;;5069664;28;20032;-73
2022/03/25 05:17:31;;;;;;;37.40;17.98;;;;;;;;;;5071891;28;20117;-71
2022/03/25 05:19:57;;;;;;;36.92;15.82;;;;;;;;;;5073920;28;20017;-71
2022/03/25 05:22:23;;;;;;;39.78;14.57;;;;;;;;;;5073866;28;20420;-71
2022/03/25 05:24:49;;;;;;;26.73;14.23;;;;;;;;;;5072680;28;20029;-71
2022/03/25 05:27:16;;;;;;;24.23;12.80;;;;;;;;;;5057565;28;20049;-71
2022/03/25 05:29:42;;;;;;;23.23;13.35;;;;;;;;;;5073263;28;20559;-72
2022/03/25 05:32:09;;;;;;;29.45;13.27;;;;;;;;;;5055250;28;20045;-71
2022/03/25 05:34:36;;;;;;;33.22;16.48;;;;;;;;;;5056129;28;20414;-71
2022/03/25 05:37:02;;;;;;;28.52;15.93;;;;;;;;;;5061394;28;20044;-70
2022/03/25 05:39:28;;;;;;;33.78;17.67;;;;;;;;;;5056944;28;20120;-71
2022/03/25 05:41:54;;;;;;;33.25;15.20;;;;;;;;;;5068986;28;20028;-72
2022/03/25 05:44:20;;;;;;;33.42;14.57;;;;;;;;;;5054542;28;20025;-72
2022/03/25 05:46:46;;;;;;;26.58;13.32;;;;;;;;;;5066501;28;20029;-71
2022/03/25 05:49:12;;;;;;;24.05;11.25;;;;;;;;;;5062482;28;20467;-72
2022/03/25 05:51:38;;;;;;;24.88;12.25;;;;;;;;;;5054589;28;20467;-72
2022/03/25 05:54:04;;;;;;;24.48;12.00;;;;;;;;;;5054511;28;20057;-71
2022/03/25 05:56:31;;;;;;;19.42;9.68;;;;;;;;;;5062344;28;20031;-73
2022/03/25 05:58:57;;;;;;;17.27;8.63;;;;;;;;;;5064175;28;20471;-72
2022/03/25 06:01:24;;;;;;;23.60;8.90;;;;;;;;;;5058972;28;20107;-72
2022/03/25 06:03:50;;;;;;;19.00;9.25;;;;;;;;;;5069983;28;20479;-73
2022/03/25 06:06:16;;;;;;;25.23;9.75;;;;;;;;;;5057702;28;20021;-72
2022/03/25 06:08:43;;;;;;;14.35;9.00;;;;;;;;;;5058647;28;20037;-73
2022/03/25 06:11:09;;;;;;;19.15;9.55;;;;;;;;;;5059587;28;20382;-71
2022/03/25 06:13:35;;;;;;;14.32;8.90;;;;;;;;;;5060993;28;20068;-73
2022/03/25 06:16:01;;;;;;;15.15;9.05;;;;;;;;;;5056717;28;20035;-74
2022/03/25 06:18:27;;;;;;;17.95;9.52;;;;;;;;;;5065468;28;20021;-80
2022/03/25 06:20:53;;;;;;;18.50;11.00;;;;;;;;;;5058094;28;20164;-75
2022/03/25 06:23:19;;;;;;;18.73;11.10;;;;;;;;;;5061449;28;20025;-75
2022/03/25 06:25:45;;;;;;;17.52;11.52;;;;;;;;;;5056988;28;20350;-75
2022/03/25 06:28:11;;;;;;;18.73;11.40;;;;;;;;;;5064111;28;20029;-77
2022/03/25 06:30:38;;;;;;;21.38;11.23;;;;;;;;;;5065789;28;20105;-76
2022/03/25 06:33:05;;;;;;;16.38;11.57;;;;;;;;;;5057347;28;20024;-71
2022/03/25 06:35:31;;;;;;;18.13;11.10;;;;;;;;;;5067139;28;20028;-76
2022/03/25 06:37:58;;;;;;;18.08;11.05;;;;;;;;;;5065616;28;20107;-75
2022/03/25 06:40:27;;;;;;;17.63;10.75;;;;;;;;;;5061449;28;20039;-71
2022/03/25 06:42:54;;;;;;;18.63;11.32;;;;;;;;;;5063780;28;20040;-72
2022/03/25 06:45:21;;;;;;;20.05;10.80;;;;;;;;;;5059434;28;20020;-72
2022/03/25 06:47:47;;;;;;;23.63;12.68;;;;;;;;;;5060169;28;20494;-73
2022/03/25 06:50:15;;;;;;;22.70;14.32;;;;;;;;;;5061164;28;20079;-73
2022/03/25 06:52:41;;;;;;;23.92;12.57;;;;;;;;;;5058430;28;20075;-71
2022/03/25 06:55:30;;;;;;;15.55;11.13;;;;;;;;;;5055049;28;20024;-75
2022/03/25 06:57:57;;;;;;;18.33;11.38;;;;;;;;;;5063107;28;20501;-76
2022/03/25 07:00:24;;;;;;;19.42;11.25;;;;;;;;;;5055564;28;20127;-72
2022/03/25 07:02:53;;;;;;;22.95;12.73;;;;;;;;;;5065439;28;20039;-71
2022/03/25 07:05:19;;;;;;;24.85;13.52;;;;;;;;;;5058918;28;20520;-76
2022/03/25 07:07:45;;;;;;;21.90;12.98;;;;;;;;;;5060999;28;20485;-74
2022/03/25 07:10:12;;;;;;;23.42;13.52;;;;;;;;;;5055645;28;20032;-72
2022/03/25 07:12:40;;;;;;;22.73;14.15;;;;;;;;;;5063029;28;20044;-73
2022/03/25 07:15:07;;;;;;;23.02;14.20;;;;;;;;;;5060964;28;20096;-70
2022/03/25 07:17:33;;;;;;;19.77;13.50;;;;;;;;;;5063396;28;20027;-73
2022/03/25 07:19:59;;;;;;;25.63;14.35;;;;;;;;;;5056829;28;20108;-70
2022/03/25 07:22:31;;;;;;;25.90;15.40;;;;;;;;;;5066410;28;20016;-73
2022/03/25 07:24:57;;;;;;;27.42;15.95;;;;;;;;;;5057058;28;20029;-72
2022/03/25 07:27:24;;;;;;;25.83;17.02;;;;;;;;;;5054541;28;20064;-75
2022/03/25 07:29:50;;;;;;;30.48;16.95;;;;;;;;;;5065652;28;20040;-76
2022/03/25 07:32:19;;;;;;;25.85;16.27;;;;;;;;;;5065093;28;20078;-75
2022/03/25 07:34:46;;;;;;;26.85;16.67;;;;;;;;;;5055742;28;20382;-73
2022/03/25 07:37:12;;;;;;;31.42;16.02;;;;;;;;;;5057906;28;20379;-71
2022/03/25 07:39:39;;;;;;;28.58;16.25;;;;;;;;;;5062983;28;20024;-72
2022/03/25 07:42:05;;;;;;;35.55;21.52;;;;;;;;;;5060382;28;20020;-72
2022/03/25 07:44:31;;;;;;;24.58;16.80;;;;;;;;;;5062816;28;20437;-71
2022/03/25 07:46:57;;;;;;;27.02;14.93;;;;;;;;;;5059009;28;20045;-74
2022/03/25 07:49:23;;;;;;;21.02;14.90;;;;;;;;;;5071202;28;20107;-75
2022/03/25 07:51:49;;;;;;;30.55;17.08;;;;;;;;;;5060514;28;20032;-72
2022/03/25 07:54:16;;;;;;;26.92;15.75;;;;;;;;;;5057800;28;21330;-73
2022/03/25 07:56:42;;;;;;;27.17;14.70;;;;;;;;;;5061432;28;20045;-71
2022/03/25 07:59:08;;;;;;;22.55;15.15;;;;;;;;;;5062232;28;20059;-73
2022/03/25 08:01:34;;;;;;;21.45;12.80;;;;;;;;;;5062004;28;20043;-74
2022/03/25 08:04:00;;;;;;;21.90;13.65;;;;;;;;;;5063950;28;20032;-74
2022/03/25 08:06:27;;;;;;;22.20;14.13;;;;;;;;;;5054360;28;20029;-78
2022/03/25 08:08:53;;;;;;;20.70;13.32;;;;;;;;;;5057965;28;20025;-76
2022/03/25 08:11:20;;;;;;;22.98;13.13;;;;;;;;;;5057507;28;20078;-75
2022/03/25 08:13:47;;;;;;;22.20;12.63;;;;;;;;;;5070039;28;20449;-74
2022/03/25 08:16:15;;;;;;;20.20;12.55;;;;;;;;;;5064424;28;20032;-71
2022/03/25 08:18:41;;;;;;;20.35;12.27;;;;;;;;;;5058361;28;20035;-73
2022/03/25 08:21:07;;;;;;;19.05;12.07;;;;;;;;;;5060080;28;20027;-72
2022/03/25 08:29:03;;;;;;;20.13;12.90;;;;;;;;;;5058672;28;20048;-70
2022/03/25 08:31:29;;;;;;;20.60;12.60;;;;;;;;;;5065944;28;20121;-77
2022/03/25 08:33:56;;;;;;;37.85;12.18;;;;;;;;;;5064282;28;20116;-73
2022/03/25 08:36:22;;;;;;;19.85;12.77;;;;;;;;;;5064103;28;20044;-74
2022/03/25 08:38:48;;;;;;;30.17;12.27;;;;;;;;;;5064464;28;20032;-76
2022/03/25 08:41:15;;;;;;;15.45;10.88;;;;;;;;;;5064343;28;20502;-74
2022/03/25 08:43:42;;;;;;;17.95;10.82;;;;;;;;;;5058907;28;20112;-75
2022/03/25 08:46:08;;;;;;;14.57;11.25;;;;;;;;;;5068213;28;20016;-76
2022/03/25 08:48:34;;;;;;;15.38;10.60;;;;;;;;;;5066500;28;20056;-79
2022/03/25 08:51:01;;;;;;;20.88;11.27;;;;;;;;;;5068661;28;20097;-77
2022/03/25 08:53:27;;;;;;;18.58;11.68;;;;;;;;;;5067571;28;20075;-76
2022/03/25 08:55:53;;;;;;;16.05;10.95;;;;;;;;;;5066958;28;20025;-78
2022/03/25 08:58:19;;;;;;;14.80;10.57;;;;;;;;;;5065662;28;20029;-80
2022/03/25 09:00:45;;;;;;;18.38;10.30;;;;;;;;;;5062083;28;20043;-77
2022/03/25 09:03:12;;;;;;;22.30;10.10;;;;;;;;;;5064656;28;20043;-74
2022/03/25 09:05:39;;;;;;;20.02;10.60;;;;;;;;;;5061831;28;20078;-86
2022/03/25 09:08:06;;;;;;;16.17;10.40;;;;;;;;;;5067045;28;20128;-78
2022/03/25 09:10:32;;;;;;;18.02;9.77;;;;;;;;;;5061147;28;20446;-81
2022/03/25 09:12:59;;;;;;;22.60;11.13;;;;;;;;;;5061082;28;20128;-70
2022/03/25 09:15:25;;;;;;;18.40;10.80;;;;;;;;;;5063699;28;20378;-70
2022/03/25 09:17:51;;;;;;;18.25;11.00;;;;;;;;;;5065908;28;20021;-78
2022/03/25 09:20:17;;;;;;;22.83;11.02;;;;;;;;;;5064114;28;20719;-79
2022/03/25 09:22:44;;;;;;;19.10;10.80;;;;;;;;;;5063810;28;20100;-81
2022/03/25 09:25:11;;;;;;;18.67;11.35;;;;;;;;;;5063371;28;20405;-82
2022/03/25 09:27:39;;;;;;;23.92;11.13;;;;;;;;;;5063918;28;20410;-82
2022/03/25 09:30:06;;;;;;;17.90;11.70;;;;;;;;;;5061785;28;20047;-78
2022/03/25 09:32:32;;;;;;;27.23;11.93;;;;;;;;;;5067400;28;20057;-81
2022/03/25 09:35:10;;;;;;;22.98;14.35;;;;;;;;;;5062334;28;20025;-74
2022/03/25 09:37:39;;;;;;;22.70;13.90;;;;;;;;;;5060967;28;20021;-70
2022/03/25 09:40:10;;;;;;;34.92;13.38;;;;;;;;;;5060565;28;20051;-71
2022/03/25 09:42:37;;;;;;;25.00;12.90;;;;;;;;;;5067407;28;20048;-69
2022/03/25 09:45:04;;;;;;;20.27;13.05;;;;;;;;;;5058502;28;20117;-76
2022/03/25 09:47:31;;;;;;;21.73;12.63;;;;;;;;;;5063153;28;20029;-75
2022/03/25 09:49:58;;;;;;;16.38;10.00;;;;;;;;;;5068393;28;20116;-77
2022/03/25 09:52:28;;;;;;;20.58;9.68;;;;;;;;;;5067510;28;20032;-75
2022/03/25 09:54:54;;;;;;;16.65;8.70;;;;;;;;;;5061952;28;20059;-79
2022/03/25 09:57:20;;;;;;;21.30;10.20;;;;;;;;;;5064476;28;20023;-78
2022/03/25 09:59:46;;;;;;;17.40;9.73;;;;;;;;;;5066322;28;20506;-69
2022/03/25 10:02:12;;;;;;;20.38;10.65;;;;;;;;;;5066921;28;20028;-83
2022/03/25 10:04:38;;;;;;;15.07;10.18;;;;;;;;;;5059902;28;20017;-86
2022/03/25 10:07:20;;;;;;;20.20;10.70;;;;;;;;;;5063840;28;20036;-83
2022/03/25 10:09:48;;;;;;;22.63;11.20;;;;;;;;;;5061351;28;20045;-83
2022/03/25 10:12:22;;;;;;;17.77;10.25;;;;;;;;;;5068340;28;20060;-80
2022/03/25 10:14:51;;;;;;;18.98;11.63;;;;;;;;;;5065465;28;20044;-78
2022/03/25 10:17:18;;;;;;;19.60;10.95;;;;;;;;;;5061637;28;20024;-82
2022/03/25 10:19:53;;;;;;;20.10;11.48;;;;;;;;;;5060536;28;20028;-71
2022/03/25 10:22:20;;;;;;;17.08;10.90;;;;;;;;;;5063389;28;20025;-71
2022/03/25 10:24:48;;;;;;;26.88;12.45;;;;;;;;;;5059940;28;20062;-74
2022/03/25 10:27:21;;;;;;;20.10;11.00;;;;;;;;;;5060615;28;20047;-74
2022/03/25 10:29:47;;;;;;;17.20;9.77;;;;;;;;;;5059951;28;20100;-73
2022/03/25 10:32:19;;;;;;;14.50;9.38;;;;;;;;;;5063549;28;20045;-74
2022/03/25 10:34:47;;;;;;;16.48;8.80;;;;;;;;;;5069358;28;20089;-73
2022/03/25 10:37:14;;;;;;;14.07;9.48;;;;;;;;;;5063934;28;20032;-72
2022/03/25 10:39:51;;;;;;;18.98;9.70;;;;;;;;;;5068701;28;20025;-71
2022/03/25 10:42:17;;;;;;;14.77;8.80;;;;;;;;;;5061014;28;20031;-70
2022/03/25 10:44:44;;;;;;;77.57;10.98;;;;;;;;;;5066411;28;20092;-75
2022/03/25 10:47:16;;;;;;;23.27;10.15;;;;;;;;;;5066485;28;20055;-73
2022/03/25 10:49:46;;;;;;;12.75;8.27;;;;;;;;;;5066145;28;20021;-73
2022/03/25 10:52:25;;;;;;;14.25;8.45;;;;;;;;;;5066100;28;20093;-79
2022/03/25 10:54:52;;;;;;;14.38;9.32;;;;;;;;;;5065132;28;20040;-82
2022/03/25 10:57:18;;;;;;;14.60;8.88;;;;;;;;;;5067317;28;20516;-73
2022/03/25 10:59:57;;;;;;;16.30;8.93;;;;;;;;;;5065548;28;20506;-82
2022/03/25 11:02:23;;;;;;;14.55;8.38;;;;;;;;;;5062450;28;20033;-74
2022/03/25 11:04:49;;;;;;;33.45;9.90;;;;;;;;;;5065987;28;20146;-78
2022/03/25 11:07:22;;;;;;;17.65;9.27;;;;;;;;;;5066300;28;20492;-77
2022/03/25 11:09:49;;;;;;;12.43;8.50;;;;;;;;;;5059043;28;20056;-75
2022/03/25 11:12:15;;;;;;;66.30;12.10;;;;;;;;;;5058610;28;20293;-74
2022/03/25 11:14:41;;;;;;;17.92;9.40;;;;;;;;;;5060240;28;20063;-82
2022/03/25 11:17:09;;;;;;;15.23;9.45;;;;;;;;;;5064098;28;20123;-77
2022/03/25 11:19:38;;;;;;;16.63;8.88;;;;;;;;;;5058676;28;20021;-78
2022/03/25 11:22:04;;;;;;;13.25;8.35;;;;;;;;;;5064930;28;20370;-79
2022/03/25 11:24:40;;;;;;;17.30;8.95;;;;;;;;;;5069314;28;20025;-75
2022/03/25 11:27:09;;;;;;;23.48;9.15;;;;;;;;;;5060210;28;20029;-83
2022/03/25 11:29:36;;;;;;;13.88;8.32;;;;;;;;;;5064926;28;20051;-76
2022/03/25 11:32:07;;;;;;;22.02;9.07;;;;;;;;;;5061423;28;20080;-81
2022/03/25 11:34:33;;;;;;;18.35;9.10;;;;;;;;;;5061921;28;20482;-69
2022/03/25 11:37:15;;;;;;;12.93;8.50;;;;;;;;;;5055482;28;20025;-79
2022/03/25 11:39:41;;;;;;;18.98;8.98;;;;;;;;;;5064826;28;20028;-71
2022/03/25 11:42:08;;;;;;;14.88;8.50;;;;;;;;;;5068385;28;20136;-73
2022/03/25 11:44:34;;;;;;;17.60;9.45;;;;;;;;;;5061683;28;20025;-71
2022/03/25 11:47:00;;;;;;;14.93;8.65;;;;;;;;;;5067216;28;20020;-74
2022/03/25 11:49:41;;;;;;;35.50;9.50;;;;;;;;;;5062369;28;21330;-74
2022/03/25 11:52:17;;;;;;;15.50;9.13;;;;;;;;;;5059519;28;20064;-72
2022/03/25 11:54:43;;;;;;;15.73;8.15;;;;;;;;;;5062609;28;20082;-74
2022/03/25 11:57:42;;;;;;;14.20;8.77;;;;;;;;;;5064353;28;20032;-71
2022/03/25 12:00:12;;;;;;;23.00;9.30;;;;;;;;;;5019234;28;20180;-71
2022/03/25 12:02:40;;;;;;;16.73;9.02;;;;;;;;;;5019314;28;20037;-70
2022/03/25 12:05:26;;;;;;;14.68;9.20;;;;;;;;;;5023440;28;20067;-69
2022/03/25 12:08:32;;;;;;;16.05;8.38;;;;;;;;;;5020580;28;20074;-73
2022/03/25 12:11:00;;;;;;;18.98;9.27;;;;;;;;;;4965119;28;20058;-71
2022/03/25 12:13:45;;;;;;;19.40;9.30;;;;;;;;;;4962089;28;20034;-84
2022/03/25 12:16:11;;;;;;;17.08;8.95;;;;;;;;;;4961470;28;20051;-72
2022/03/25 12:18:46;;;;;;;17.80;9.15;;;;;;;;;;4964628;28;20027;-75
2022/03/25 12:21:43;;;;;;;14.55;8.30;;;;;;;;;;4963372;28;20034;-70
2022/03/25 12:24:12;;;;;;;11.60;8.60;;;;;;;;;;4963018;28;20042;-70
2022/03/25 12:26:41;;;;;;;20.45;9.30;;;;;;;;;;4970135;28;20034;-71
2022/03/25 12:29:13;;;;;;;15.23;9.50;;;;;;;;;;4952854;28;20097;-70
2022/03/25 12:31:41;;;;;;;12.07;8.38;;;;;;;;;;4956638;28;20082;-72
2022/03/25 12:34:08;;;;;;;14.32;8.85;;;;;;;;;;4967995;28;20062;-71
2022/03/25 12:36:35;;;;;;;15.98;9.00;;;;;;;;;;4999756;28;20038;-71
2022/03/25 12:39:01;;;;;;;16.27;8.40;;;;;;;;;;5010111;28;20093;-72
2022/03/25 12:41:31;;;;;;;15.00;9.00;;;;;;;;;;5034291;28;20485;-73
2022/03/25 12:44:00;;;;;;;14.32;9.07;;;;;;;;;;5069439;28;20028;-70
2022/03/25 12:46:27;;;;;;;16.77;8.88;;;;;;;;;;5068488;28;20446;-71
2022/03/25 12:49:01;;;;;;;16.92;9.38;;;;;;;;;;5065266;28;20024;-71
2022/03/25 12:51:28;;;;;;;17.48;9.18;;;;;;;;;;5063263;28;20035;-72
2022/03/25 12:53:57;;;;;;;13.80;8.75;;;;;;;;;;5062857;28;20445;-71
2022/03/25 12:56:23;;;;;;;15.70;9.15;;;;;;;;;;5067875;28;20064;-72
2022/03/25 12:59:07;;;;;;;15.85;9.43;;;;;;;;;;5071829;28;20451;-71
2022/03/25 13:01:33;;;;;;;15.90;8.38;;;;;;;;;;5064477;28;20087;-71
2022/03/25 13:04:00;;;;;;;20.67;10.07;;;;;;;;;;5064748;28;20120;-72
2022/03/25 13:06:27;;;;;;;19.30;9.18;;;;;;;;;;5068270;28;20092;-71
2022/03/25 13:09:00;;;;;;;14.65;9.32;;;;;;;;;;5070378;28;20047;-71
2022/03/25 13:11:26;;;;;;;14.10;9.38;;;;;;;;;;5068559;28;20049;-72
2022/03/25 13:13:55;;;;;;;22.42;9.70;;;;;;;;;;5071214;28;20486;-71
2022/03/25 13:16:27;;;;;;;16.17;9.77;;;;;;;;;;5073128;28;20070;-71
2022/03/25 13:18:53;;;;;;;17.90;10.52;;;;;;;;;;5061536;28;20175;-72
2022/03/25 13:21:19;;;;;;;18.85;9.90;;;;;;;;;;5059201;28;20017;-73
2022/03/25 13:23:45;;;;;;;23.75;10.20;;;;;;;;;;5064580;28;20456;-72
2022/03/25 13:26:11;;;;;;;16.88;9.50;;;;;;;;;;5066898;28;20382;-71
2022/03/25 13:28:42;;;;;;;18.92;9.90;;;;;;;;;;5072491;28;20028;-73
2022/03/25 13:31:09;;;;;;;16.75;9.40;;;;;;;;;;5064431;28;20774;-72
2022/03/25 13:33:55;;;;;;;15.80;8.43;;;;;;;;;;5066863;28;20047;-71
2022/03/25 13:36:25;;;;;;;11.70;8.25;;;;;;;;;;5062115;28;20028;-73
2022/03/25 13:38:52;;;;;;;15.63;8.88;;;;;;;;;;5061259;28;20492;-73
2022/03/25 13:41:22;;;;;;;16.67;9.07;;;;;;;;;;5066998;28;20041;-75
2022/03/25 13:43:49;;;;;;;25.35;9.70;;;;;;;;;;5061353;28;20036;-72
2022/03/25 13:46:19;;;;;;;27.02;11.07;;;;;;;;;;5062254;28;20024;-74
2022/03/25 13:48:55;;;;;;;21.88;10.65;;;;;;;;;;5063845;28;20029;-73
2022/03/25 13:51:30;;;;;;;15.00;9.23;;;;;;;;;;5070195;28;20389;-74
2022/03/25 13:54:00;;;;;;;17.98;10.15;;;;;;;;;;5065549;28;20094;-75
2022/03/25 13:56:26;;;;;;;41.70;10.95;;;;;;;;;;5063966;28;20100;-75
2022/03/25 13:58:56;;;;;;;21.75;9.73;;;;;;;;;;5068953;28;20551;-75
2022/03/25 14:01:39;;;;;;;14.15;9.13;;;;;;;;;;5062972;28;20493;-73
2022/03/25 14:04:06;;;;;;;16.60;9.32;;;;;;;;;;5067928;28;20082;-72
2022/03/25 14:06:35;;;;;;;15.48;9.07;;;;;;;;;;5066422;28;20479;-73
2022/03/25 14:09:02;;;;;;;20.92;9.75;;;;;;;;;;5060081;28;20036;-72
2022/03/25 14:11:34;;;;;;;16.67;9.52;;;;;;;;;;5068515;28;20035;-73
2022/03/25 14:14:02;;;;;;;18.30;10.07;;;;;;;;;;5064792;28;20032;-73
2022/03/25 14:16:32;;;;;;;15.93;9.30;;;;;;;;;;5070634;28;20028;-76
2022/03/25 14:18:59;;;;;;;25.00;9.55;;;;;;;;;;5061237;28;20021;-76
2022/03/25 14:21:30;;;;;;;18.50;8.95;;;;;;;;;;5067891;28;20040;-79
2022/03/25 14:26:41;;;;;;;21.58;10.35;;;;;;;;;;5068313;28;20403;-73
2022/03/25 14:29:10;;;;;;;15.77;8.77;;;;;;;;;;5065668;28;20021;-82
2022/03/25 14:31:37;;;;;;;15.63;8.90;;;;;;;;;;5070455;28;20024;-71
2022/03/25 14:34:08;;;;;;;14.50;9.18;;;;;;;;;;5064293;28;20140;-72
2022/03/25 14:36:35;;;;;;;15.65;9.45;;;;;;;;;;5058426;28;20125;-75